LYZR weather

Zrenjanin Airport
Zrenjanin, Central Banat, Serbia

Public forecast

Using degrees Celsius for public forecast. Weather courtesy of forecast.io.

METAR (pilot weather report)

Closest report is Batajnica Air Base, 25.7 nm (47.5 km) SSW. Retrieved 2019/06/18 22:30 UTC (25 minutes ago):

LYBT 182230Z 00000KT CAVOK 19/19 Q1016 NOSIG

TAF (pilot weather forecast)

Closest forecast is Batajnica Air Base, 25.7 nm (47.5 km) SSW. Retrieved 2019/06/18 18:00 UTC (5 hours ago):

TAF LYBT 181700Z 1818/1918 VRB02KT 9999 SCT040 TX30/1913Z TN16/1903Z PROB40 TEMPO 1818/1821 3000 TSRA SCT030CB BKN033 TEMPO 1902/1905 3000 BR TEMPO 1912/1918 VRB15G35KT 3000 TSRA SCT027CB BKN030